Poskin, Wisconsin
Current Conditions -  °F | °C
As of 2:55 AM on Saturday 29 Nov 2014 (Local Time) from KRPD Reporting Station
Overcast Overcast  
Wind Chill: 12°   Ceiling: 700
Heat Index: 21°   Visibility: 7mi
Dew Point: 19°   Wind: 7mph
Humidity: 91%   Direction: 120°ESE
Pressure: 29.65"   Gusts: NA
Location:  45.3978°N, 91.8834°W
Report Text: KRPD 290855Z AUTO 12006KT 7SM OVC007 M06/M07 A2965 RMK AO2 T10621075
Loading
Personal Weather Stations






























Interactive Weather Map New forecast layout! Learn more

10-Day Weather Forecast

Advertisements
Track Severe Weather on mobile